Agena — LXHI — position and weather

sailwx.info

Track history (hours):
 
Tides and Currents Weather Stations Pressure Air Temp Water Temp Dewpoint Dewpoint Depression Visibility Wind Speed Wind Dir Waves Ship Positions

Agena

Last reported at 2018-Jun-07 03:26 UTC. Time now 2018-Jun-21 11:44 UTC.
Position N 25°29' W 079°29'.
Warning: this ship's position is 14 days out of date.

Length 184 m; draft 9.9 m.

Type: Ship. MMSI: 253356000.

Date/timePositionNaut miles runAvg speedWind from/ knotsBaromVisibWave heightAir tempDewpointWater temp
2018-Jun-07 03:26N 25°29' W 079°29'511.4
2018-Jun-07 03:00N 25°34' W 079°28'1210.9
2018-Jun-07 01:56N 25°45' W 079°26'510.9
2018-Jun-07 01:29N 25°50' W 079°25'711.1
2018-Jun-07 00:54N 25°57' W 079°24'511.2
2018-Jun-07 00:28N 26°01' W 079°23'511.5
2018-Jun-07 00:00N 26°07' W 079°22'611.0
2018-Jun-06 23:30N 26°11' W 079°18'612.4
2018-Jun-06 22:59N 26°15' W 079°12'  
2018-Jun-03 12:38N 26°12' W 079°19'213.6
2018-Jun-03 12:28N 26°10' W 079°21'713.1
2018-Jun-03 11:57N 26°04' W 079°25'1214.1
2018-Jun-03 11:08N 25°53' W 079°27'214.4
2018-Jun-03 11:00N 25°51' W 079°27'914.8
2018-Jun-03 10:25N 25°43' W 079°29'614.9
2018-Jun-03 10:00N 25°37' W 079°30'714.7
2018-Jun-03 09:30N 25°29' W 079°31'2614.5
2018-Jun-03 07:42N 25°03' W 079°36'314.2
2018-Jun-03 07:30N 25°01' W 079°37'714.2
2018-Jun-03 06:59N 24°54' W 079°38'2613.0
2018-Jun-03 05:01N 24°36' W 079°58'014.1
2018-Jun-03 05:00N 24°36' W 079°58'  
Track history (hours):
 
Tides and Currents Weather Stations Pressure Air Temp Water Temp Dewpoint Dewpoint Depression Visibility Wind Speed Wind Dir Waves Ship Positions

Agena

Last reported at 2018-Jun-07 03:26 UTC. Time now 2018-Jun-21 11:44 UTC.
Position N 25°29' W 079°29'.
Warning: this ship's position is 14 days out of date.

Length 184 m; draft 9.9 m.

Type: Ship. MMSI: 253356000.

Date/timePositionNaut miles runAvg speedWind from/ knotsBaromVisibWave heightAir tempDewpointWater temp
2018-Jun-07 03:26N 25°29' W 079°29'511.4
2018-Jun-07 03:00N 25°34' W 079°28'1210.9
2018-Jun-07 01:56N 25°45' W 079°26'510.9
2018-Jun-07 01:29N 25°50' W 079°25'711.1
2018-Jun-07 00:54N 25°57' W 079°24'511.2
2018-Jun-07 00:28N 26°01' W 079°23'511.5
2018-Jun-07 00:00N 26°07' W 079°22'611.0
2018-Jun-06 23:30N 26°11' W 079°18'612.4
2018-Jun-06 22:59N 26°15' W 079°12'  
2018-Jun-03 12:38N 26°12' W 079°19'213.6
2018-Jun-03 12:28N 26°10' W 079°21'713.1
2018-Jun-03 11:57N 26°04' W 079°25'1214.1
2018-Jun-03 11:08N 25°53' W 079°27'214.4
2018-Jun-03 11:00N 25°51' W 079°27'914.8
2018-Jun-03 10:25N 25°43' W 079°29'614.9
2018-Jun-03 10:00N 25°37' W 079°30'714.7
2018-Jun-03 09:30N 25°29' W 079°31'2614.5
2018-Jun-03 07:42N 25°03' W 079°36'314.2
2018-Jun-03 07:30N 25°01' W 079°37'714.2
2018-Jun-03 06:59N 24°54' W 079°38'2613.0
2018-Jun-03 05:01N 24°36' W 079°58'014.1
2018-Jun-03 05:00N 24°36' W 079°58'  

Dump ship's entire track history